sensor_id;sensor_type;location;lat;lon;timestamp;pressure;altitude;pressure_sealevel;temperature
19040;BMP180;9652;49.014;12.052;2023-09-07T00:00:46;98293.00;;;19.00
19040;BMP180;9652;49.014;12.052;2023-09-07T00:03:14;98293.00;;;19.00
19040;BMP180;9652;49.014;12.052;2023-09-07T00:05:41;98289.00;;;19.00
19040;BMP180;9652;49.014;12.052;2023-09-07T00:08:08;98287.00;;;18.90
19040;BMP180;9652;49.014;12.052;2023-09-07T00:10:36;98293.00;;;18.90
19040;BMP180;9652;49.014;12.052;2023-09-07T00:13:04;98301.00;;;18.90
19040;BMP180;9652;49.014;12.052;2023-09-07T00:15:36;98292.00;;;18.80
19040;BMP180;9652;49.014;12.052;2023-09-07T00:18:05;98288.00;;;18.80
19040;BMP180;9652;49.014;12.052;2023-09-07T00:20:32;98297.00;;;18.80
19040;BMP180;9652;49.014;12.052;2023-09-07T00:23:00;98288.00;;;18.70
19040;BMP180;9652;49.014;12.052;2023-09-07T00:25:27;98285.00;;;18.70
19040;BMP180;9652;49.014;12.052;2023-09-07T00:27:54;98287.00;;;18.70
19040;BMP180;9652;49.014;12.052;2023-09-07T00:30:21;98289.00;;;18.70
19040;BMP180;9652;49.014;12.052;2023-09-07T00:32:48;98284.00;;;18.60
19040;BMP180;9652;49.014;12.052;2023-09-07T00:35:17;98284.00;;;18.60
19040;BMP180;9652;49.014;12.052;2023-09-07T00:37:44;98290.00;;;18.60
19040;BMP180;9652;49.014;12.052;2023-09-07T00:40:11;98274.00;;;18.60
19040;BMP180;9652;49.014;12.052;2023-09-07T00:42:38;98269.00;;;18.60
19040;BMP180;9652;49.014;12.052;2023-09-07T00:45:06;98271.00;;;18.50
19040;BMP180;9652;49.014;12.052;2023-09-07T00:47:34;98275.00;;;18.50
19040;BMP180;9652;49.014;12.052;2023-09-07T00:50:03;98278.00;;;18.40
19040;BMP180;9652;49.014;12.052;2023-09-07T00:52:34;98282.00;;;18.40
19040;BMP180;9652;49.014;12.052;2023-09-07T00:55:06;98270.00;;;18.40
19040;BMP180;9652;49.014;12.052;2023-09-07T00:57:34;98271.00;;;18.40
19040;BMP180;9652;49.014;12.052;2023-09-07T01:00:04;98258.00;;;18.30
19040;BMP180;9652;49.014;12.052;2023-09-07T01:02:33;98262.00;;;18.20
19040;BMP180;9652;49.014;12.052;2023-09-07T01:05:01;98263.00;;;18.30
19040;BMP180;9652;49.014;12.052;2023-09-07T01:07:37;98272.00;;;18.30
19040;BMP180;9652;49.014;12.052;2023-09-07T01:10:06;98270.00;;;18.20
19040;BMP180;9652;49.014;12.052;2023-09-07T01:12:35;98268.00;;;18.20
19040;BMP180;9652;49.014;12.052;2023-09-07T01:15:02;98252.00;;;18.20
19040;BMP180;9652;49.014;12.052;2023-09-07T01:17:31;98258.00;;;18.20
19040;BMP180;9652;49.014;12.052;2023-09-07T01:20:04;98251.00;;;18.10
19040;BMP180;9652;49.014;12.052;2023-09-07T01:22:38;98260.00;;;18.10
19040;BMP180;9652;49.014;12.052;2023-09-07T01:25:07;98260.00;;;18.10
19040;BMP180;9652;49.014;12.052;2023-09-07T01:27:34;98252.00;;;18.00
19040;BMP180;9652;49.014;12.052;2023-09-07T01:30:03;98254.00;;;18.00
19040;BMP180;9652;49.014;12.052;2023-09-07T01:32:31;98253.00;;;18.00
19040;BMP180;9652;49.014;12.052;2023-09-07T01:34:59;98256.00;;;18.00
19040;BMP180;9652;49.014;12.052;2023-09-07T01:37:27;98256.00;;;17.90
19040;BMP180;9652;49.014;12.052;2023-09-07T01:39:56;98262.00;;;17.90
19040;BMP180;9652;49.014;12.052;2023-09-07T01:42:23;98250.00;;;17.90
19040;BMP180;9652;49.014;12.052;2023-09-07T01:44:50;98248.00;;;17.90
19040;BMP180;9652;49.014;12.052;2023-09-07T01:47:17;98249.00;;;17.80
19040;BMP180;9652;49.014;12.052;2023-09-07T01:49:45;98250.00;;;17.80
19040;BMP180;9652;49.014;12.052;2023-09-07T01:52:12;98247.00;;;17.80
19040;BMP180;9652;49.014;12.052;2023-09-07T01:54:39;98241.00;;;17.80
19040;BMP180;9652;49.014;12.052;2023-09-07T01:57:07;98243.00;;;17.70
19040;BMP180;9652;49.014;12.052;2023-09-07T01:59:34;98245.00;;;17.70
19040;BMP180;9652;49.014;12.052;2023-09-07T02:02:01;98245.00;;;17.70
19040;BMP180;9652;49.014;12.052;2023-09-07T02:04:28;98238.00;;;17.70
19040;BMP180;9652;49.014;12.052;2023-09-07T02:06:55;98244.00;;;17.70
19040;BMP180;9652;49.014;12.052;2023-09-07T02:09:22;98232.00;;;17.70
19040;BMP180;9652;49.014;12.052;2023-09-07T02:11:49;98242.00;;;17.60
19040;BMP180;9652;49.014;12.052;2023-09-07T02:14:18;98245.00;;;17.60
19040;BMP180;9652;49.014;12.052;2023-09-07T02:16:45;98252.00;;;17.60
19040;BMP180;9652;49.014;12.052;2023-09-07T02:19:12;98251.00;;;17.60
19040;BMP180;9652;49.014;12.052;2023-09-07T02:21:40;98245.00;;;17.50
19040;BMP180;9652;49.014;12.052;2023-09-07T02:24:07;98242.00;;;17.50
19040;BMP180;9652;49.014;12.052;2023-09-07T02:26:35;98241.00;;;17.50
19040;BMP180;9652;49.014;12.052;2023-09-07T02:29:04;98246.00;;;17.50
19040;BMP180;9652;49.014;12.052;2023-09-07T02:31:34;98249.00;;;17.50
19040;BMP180;9652;49.014;12.052;2023-09-07T02:34:01;98248.00;;;17.40
19040;BMP180;9652;49.014;12.052;2023-09-07T02:36:29;98238.00;;;17.40
19040;BMP180;9652;49.014;12.052;2023-09-07T02:38:56;98239.00;;;17.40
19040;BMP180;9652;49.014;12.052;2023-09-07T02:41:24;98242.00;;;17.40
19040;BMP180;9652;49.014;12.052;2023-09-07T02:43:51;98247.00;;;17.40
19040;BMP180;9652;49.014;12.052;2023-09-07T02:46:17;98240.00;;;17.40
19040;BMP180;9652;49.014;12.052;2023-09-07T02:48:45;98241.00;;;17.30
19040;BMP180;9652;49.014;12.052;2023-09-07T02:51:12;98250.00;;;17.30
19040;BMP180;9652;49.014;12.052;2023-09-07T02:53:40;98252.00;;;17.30
19040;BMP180;9652;49.014;12.052;2023-09-07T02:56:07;98243.00;;;17.30
19040;BMP180;9652;49.014;12.052;2023-09-07T02:58:36;98244.00;;;17.30
19040;BMP180;9652;49.014;12.052;2023-09-07T03:01:06;98252.00;;;17.30
19040;BMP180;9652;49.014;12.052;2023-09-07T03:03:35;98245.00;;;17.20
19040;BMP180;9652;49.014;12.052;2023-09-07T03:06:09;98243.00;;;17.20
19040;BMP180;9652;49.014;12.052;2023-09-07T03:08:37;98246.00;;;17.20
19040;BMP180;9652;49.014;12.052;2023-09-07T03:11:04;98234.00;;;17.20
19040;BMP180;9652;49.014;12.052;2023-09-07T03:13:32;98251.00;;;17.20
19040;BMP180;9652;49.014;12.052;2023-09-07T03:16:00;98245.00;;;17.10
19040;BMP180;9652;49.014;12.052;2023-09-07T03:18:29;98245.00;;;17.20
19040;BMP180;9652;49.014;12.052;2023-09-07T03:21:00;98242.00;;;17.10
19040;BMP180;9652;49.014;12.052;2023-09-07T03:23:29;98232.00;;;17.10
19040;BMP180;9652;49.014;12.052;2023-09-07T03:25:57;98241.00;;;17.00
19040;BMP180;9652;49.014;12.052;2023-09-07T03:28:25;98248.00;;;17.10
19040;BMP180;9652;49.014;12.052;2023-09-07T03:30:53;98245.00;;;17.10
19040;BMP180;9652;49.014;12.052;2023-09-07T03:33:21;98231.00;;;17.00
19040;BMP180;9652;49.014;12.052;2023-09-07T03:35:48;98246.00;;;17.00
19040;BMP180;9652;49.014;12.052;2023-09-07T03:38:16;98245.00;;;17.00
19040;BMP180;9652;49.014;12.052;2023-09-07T03:40:44;98246.00;;;17.00
19040;BMP180;9652;49.014;12.052;2023-09-07T03:43:11;98248.00;;;17.00
19040;BMP180;9652;49.014;12.052;2023-09-07T03:45:38;98258.00;;;16.90
19040;BMP180;9652;49.014;12.052;2023-09-07T03:48:06;98256.00;;;16.90
19040;BMP180;9652;49.014;12.052;2023-09-07T03:50:36;98251.00;;;16.90
19040;BMP180;9652;49.014;12.052;2023-09-07T03:53:04;98246.00;;;16.90
19040;BMP180;9652;49.014;12.052;2023-09-07T03:55:40;98258.00;;;16.80
19040;BMP180;9652;49.014;12.052;2023-09-07T03:58:11;98247.00;;;16.80
19040;BMP180;9652;49.014;12.052;2023-09-07T04:00:39;98246.00;;;16.80
19040;BMP180;9652;49.014;12.052;2023-09-07T04:03:07;98169.00;;;16.80
19040;BMP180;9652;49.014;12.052;2023-09-07T04:05:36;98231.00;;;16.80
19040;BMP180;9652;49.014;12.052;2023-09-07T04:08:04;98243.00;;;16.80
19040;BMP180;9652;49.014;12.052;2023-09-07T04:10:31;98242.00;;;16.70
19040;BMP180;9652;49.014;12.052;2023-09-07T04:12:58;98245.00;;;16.70
19040;BMP180;9652;49.014;12.052;2023-09-07T04:15:27;98244.00;;;16.70
19040;BMP180;9652;49.014;12.052;2023-09-07T04:17:54;98240.00;;;16.70
19040;BMP180;9652;49.014;12.052;2023-09-07T04:20:21;98248.00;;;16.60
19040;BMP180;9652;49.014;12.052;2023-09-07T04:22:50;98244.00;;;16.60
19040;BMP180;9652;49.014;12.052;2023-09-07T04:25:18;98247.00;;;16.60
19040;BMP180;9652;49.014;12.052;2023-09-07T04:27:45;98245.00;;;16.60
19040;BMP180;9652;49.014;12.052;2023-09-07T04:30:12;98245.00;;;16.60
19040;BMP180;9652;49.014;12.052;2023-09-07T04:32:39;98252.00;;;16.50
19040;BMP180;9652;49.014;12.052;2023-09-07T04:35:07;98249.00;;;16.50
19040;BMP180;9652;49.014;12.052;2023-09-07T04:37:36;98245.00;;;16.50
19040;BMP180;9652;49.014;12.052;2023-09-07T04:40:06;98256.00;;;16.50
19040;BMP180;9652;49.014;12.052;2023-09-07T04:42:33;98252.00;;;16.50
19040;BMP180;9652;49.014;12.052;2023-09-07T04:45:01;98252.00;;;16.50
19040;BMP180;9652;49.014;12.052;2023-09-07T04:47:29;98256.00;;;16.40
19040;BMP180;9652;49.014;12.052;2023-09-07T04:49:58;98254.00;;;16.40
19040;BMP180;9652;49.014;12.052;2023-09-07T04:52:25;98256.00;;;16.40
19040;BMP180;9652;49.014;12.052;2023-09-07T04:54:53;98267.00;;;16.40
19040;BMP180;9652;49.014;12.052;2023-09-07T04:57:20;98264.00;;;16.40
19040;BMP180;9652;49.014;12.052;2023-09-07T04:59:47;98263.00;;;16.40
19040;BMP180;9652;49.014;12.052;2023-09-07T05:02:15;98261.00;;;16.40
19040;BMP180;9652;49.014;12.052;2023-09-07T05:04:43;98248.00;;;16.40
19040;BMP180;9652;49.014;12.052;2023-09-07T05:07:12;98267.00;;;16.40
19040;BMP180;9652;49.014;12.052;2023-09-07T05:09:39;98265.00;;;16.40
19040;BMP180;9652;49.014;12.052;2023-09-07T05:12:07;98270.00;;;16.40
19040;BMP180;9652;49.014;12.052;2023-09-07T05:14:34;98269.00;;;16.40
19040;BMP180;9652;49.014;12.052;2023-09-07T05:17:01;98273.00;;;16.40
19040;BMP180;9652;49.014;12.052;2023-09-07T05:19:28;98272.00;;;16.40
19040;BMP180;9652;49.014;12.052;2023-09-07T05:21:56;98283.00;;;16.50
19040;BMP180;9652;49.014;12.052;2023-09-07T05:24:24;98280.00;;;16.50
19040;BMP180;9652;49.014;12.052;2023-09-07T05:26:52;98281.00;;;16.50
19040;BMP180;9652;49.014;12.052;2023-09-07T05:29:19;98282.00;;;16.50
19040;BMP180;9652;49.014;12.052;2023-09-07T05:31:46;98279.00;;;16.50
19040;BMP180;9652;49.014;12.052;2023-09-07T05:34:13;98279.00;;;16.50
19040;BMP180;9652;49.014;12.052;2023-09-07T05:36:40;98294.00;;;16.60
19040;BMP180;9652;49.014;12.052;2023-09-07T05:39:08;98294.00;;;16.60
19040;BMP180;9652;49.014;12.052;2023-09-07T05:41:36;98301.00;;;16.60
19040;BMP180;9652;49.014;12.052;2023-09-07T05:44:04;98303.00;;;16.70
19040;BMP180;9652;49.014;12.052;2023-09-07T05:46:31;98306.00;;;16.70
19040;BMP180;9652;49.014;12.052;2023-09-07T05:48:59;98294.00;;;16.80
19040;BMP180;9652;49.014;12.052;2023-09-07T05:51:26;98303.00;;;16.80
19040;BMP180;9652;49.014;12.052;2023-09-07T05:53:54;98306.00;;;16.90
19040;BMP180;9652;49.014;12.052;2023-09-07T05:56:22;98308.00;;;16.90
19040;BMP180;9652;49.014;12.052;2023-09-07T05:58:50;98309.00;;;16.90
19040;BMP180;9652;49.014;12.052;2023-09-07T06:01:17;98304.00;;;17.00
19040;BMP180;9652;49.014;12.052;2023-09-07T06:03:44;98311.00;;;17.10
19040;BMP180;9652;49.014;12.052;2023-09-07T06:06:11;98312.00;;;17.10
19040;BMP180;9652;49.014;12.052;2023-09-07T06:08:39;98311.00;;;17.20
19040;BMP180;9652;49.014;12.052;2023-09-07T06:11:06;98309.00;;;17.30
19040;BMP180;9652;49.014;12.052;2023-09-07T06:13:33;98325.00;;;17.40
19040;BMP180;9652;49.014;12.052;2023-09-07T06:16:02;98312.00;;;17.40
19040;BMP180;9652;49.014;12.052;2023-09-07T06:18:30;98319.00;;;17.50
19040;BMP180;9652;49.014;12.052;2023-09-07T06:20:57;98327.00;;;17.60
19040;BMP180;9652;49.014;12.052;2023-09-07T06:23:24;98316.00;;;17.70
19040;BMP180;9652;49.014;12.052;2023-09-07T06:25:54;98326.00;;;17.80
19040;BMP180;9652;49.014;12.052;2023-09-07T06:28:21;98309.00;;;17.90
19040;BMP180;9652;49.014;12.052;2023-09-07T06:30:49;98329.00;;;17.90
19040;BMP180;9652;49.014;12.052;2023-09-07T06:33:19;98333.00;;;18.00
19040;BMP180;9652;49.014;12.052;2023-09-07T06:35:46;98338.00;;;18.10
19040;BMP180;9652;49.014;12.052;2023-09-07T06:38:13;98333.00;;;18.20
19040;BMP180;9652;49.014;12.052;2023-09-07T06:40:41;98337.00;;;18.30
19040;BMP180;9652;49.014;12.052;2023-09-07T06:43:08;98331.00;;;18.40
19040;BMP180;9652;49.014;12.052;2023-09-07T06:45:37;98332.00;;;18.50
19040;BMP180;9652;49.014;12.052;2023-09-07T06:48:05;98329.00;;;18.60
19040;BMP180;9652;49.014;12.052;2023-09-07T06:50:33;98337.00;;;18.70
19040;BMP180;9652;49.014;12.052;2023-09-07T06:53:01;98322.00;;;18.80
19040;BMP180;9652;49.014;12.052;2023-09-07T06:55:28;98332.00;;;18.90
19040;BMP180;9652;49.014;12.052;2023-09-07T06:57:56;98326.00;;;19.00
19040;BMP180;9652;49.014;12.052;2023-09-07T07:00:23;98340.00;;;19.10
19040;BMP180;9652;49.014;12.052;2023-09-07T07:02:50;98336.00;;;19.20
19040;BMP180;9652;49.014;12.052;2023-09-07T07:05:18;98335.00;;;19.30
19040;BMP180;9652;49.014;12.052;2023-09-07T07:07:48;98335.00;;;19.50
19040;BMP180;9652;49.014;12.052;2023-09-07T07:10:15;98329.00;;;19.60
19040;BMP180;9652;49.014;12.052;2023-09-07T07:12:42;98331.00;;;19.70
19040;BMP180;9652;49.014;12.052;2023-09-07T07:15:10;98332.00;;;19.80
19040;BMP180;9652;49.014;12.052;2023-09-07T07:17:37;98327.00;;;19.90
19040;BMP180;9652;49.014;12.052;2023-09-07T07:20:07;98335.00;;;19.90
19040;BMP180;9652;49.014;12.052;2023-09-07T07:22:35;98326.00;;;20.10
19040;BMP180;9652;49.014;12.052;2023-09-07T07:25:04;98341.00;;;20.10
19040;BMP180;9652;49.014;12.052;2023-09-07T07:27:32;98335.00;;;20.20
19040;BMP180;9652;49.014;12.052;2023-09-07T07:30:00;98338.00;;;20.30
19040;BMP180;9652;49.014;12.052;2023-09-07T07:32:28;98331.00;;;20.40
19040;BMP180;9652;49.014;12.052;2023-09-07T07:34:55;98331.00;;;20.50
19040;BMP180;9652;49.014;12.052;2023-09-07T07:37:23;98341.00;;;20.60
19040;BMP180;9652;49.014;12.052;2023-09-07T07:39:51;98343.00;;;20.70
19040;BMP180;9652;49.014;12.052;2023-09-07T07:42:19;98337.00;;;20.80
19040;BMP180;9652;49.014;12.052;2023-09-07T07:44:47;98334.00;;;20.90
19040;BMP180;9652;49.014;12.052;2023-09-07T07:47:14;98336.00;;;21.00
19040;BMP180;9652;49.014;12.052;2023-09-07T07:49:42;98340.00;;;21.10
19040;BMP180;9652;49.014;12.052;2023-09-07T07:52:10;98343.00;;;21.10
19040;BMP180;9652;49.014;12.052;2023-09-07T07:54:37;98331.00;;;21.30
19040;BMP180;9652;49.014;12.052;2023-09-07T07:57:05;98340.00;;;21.40
19040;BMP180;9652;49.014;12.052;2023-09-07T07:59:34;98306.00;;;21.50
19040;BMP180;9652;49.014;12.052;2023-09-07T08:02:02;98334.00;;;21.60
19040;BMP180;9652;49.014;12.052;2023-09-07T08:04:30;98335.00;;;21.60
19040;BMP180;9652;49.014;12.052;2023-09-07T08:06:58;98336.00;;;21.70
19040;BMP180;9652;49.014;12.052;2023-09-07T08:09:31;98313.00;;;21.80
19040;BMP180;9652;49.014;12.052;2023-09-07T08:11:59;98335.00;;;21.90
19040;BMP180;9652;49.014;12.052;2023-09-07T08:14:31;98337.00;;;22.00
19040;BMP180;9652;49.014;12.052;2023-09-07T08:17:00;98341.00;;;22.10
19040;BMP180;9652;49.014;12.052;2023-09-07T08:19:27;98316.00;;;22.10
19040;BMP180;9652;49.014;12.052;2023-09-07T08:21:57;98338.00;;;22.20
19040;BMP180;9652;49.014;12.052;2023-09-07T08:24:25;98329.00;;;22.30
19040;BMP180;9652;49.014;12.052;2023-09-07T08:26:52;98310.00;;;22.40
19040;BMP180;9652;49.014;12.052;2023-09-07T08:29:21;98337.00;;;22.50
19040;BMP180;9652;49.014;12.052;2023-09-07T08:31:51;98321.00;;;22.60
19040;BMP180;9652;49.014;12.052;2023-09-07T08:34:20;98335.00;;;22.70
19040;BMP180;9652;49.014;12.052;2023-09-07T08:36:47;98332.00;;;22.70
19040;BMP180;9652;49.014;12.052;2023-09-07T08:39:16;98343.00;;;22.80
19040;BMP180;9652;49.014;12.052;2023-09-07T08:41:44;98335.00;;;22.80
19040;BMP180;9652;49.014;12.052;2023-09-07T08:44:12;98340.00;;;23.00
19040;BMP180;9652;49.014;12.052;2023-09-07T08:46:43;98333.00;;;23.00
19040;BMP180;9652;49.014;12.052;2023-09-07T08:49:11;98333.00;;;23.10
19040;BMP180;9652;49.014;12.052;2023-09-07T08:51:40;98329.00;;;23.20
19040;BMP180;9652;49.014;12.052;2023-09-07T08:54:09;98322.00;;;23.30
19040;BMP180;9652;49.014;12.052;2023-09-07T08:56:37;98353.00;;;23.40
19040;BMP180;9652;49.014;12.052;2023-09-07T08:59:04;98328.00;;;23.50
19040;BMP180;9652;49.014;12.052;2023-09-07T09:01:32;98329.00;;;23.60
19040;BMP180;9652;49.014;12.052;2023-09-07T09:03:59;98331.00;;;23.70
19040;BMP180;9652;49.014;12.052;2023-09-07T09:06:26;98314.00;;;23.80
19040;BMP180;9652;49.014;12.052;2023-09-07T09:08:56;98325.00;;;23.90
19040;BMP180;9652;49.014;12.052;2023-09-07T09:11:25;98323.00;;;24.00
19040;BMP180;9652;49.014;12.052;2023-09-07T09:13:54;98331.00;;;24.00
19040;BMP180;9652;49.014;12.052;2023-09-07T09:16:21;98329.00;;;24.10
19040;BMP180;9652;49.014;12.052;2023-09-07T09:18:49;98322.00;;;24.20
19040;BMP180;9652;49.014;12.052;2023-09-07T09:21:18;98324.00;;;24.30
19040;BMP180;9652;49.014;12.052;2023-09-07T09:23:49;98331.00;;;24.40
19040;BMP180;9652;49.014;12.052;2023-09-07T09:26:18;98327.00;;;24.50
19040;BMP180;9652;49.014;12.052;2023-09-07T09:28:46;98330.00;;;24.60
19040;BMP180;9652;49.014;12.052;2023-09-07T09:31:14;98327.00;;;24.60
19040;BMP180;9652;49.014;12.052;2023-09-07T09:33:42;98317.00;;;24.70
19040;BMP180;9652;49.014;12.052;2023-09-07T09:36:14;98329.00;;;24.80
19040;BMP180;9652;49.014;12.052;2023-09-07T09:38:48;98316.00;;;24.80
19040;BMP180;9652;49.014;12.052;2023-09-07T09:41:20;98323.00;;;24.90
19040;BMP180;9652;49.014;12.052;2023-09-07T09:43:47;98325.00;;;25.00
19040;BMP180;9652;49.014;12.052;2023-09-07T09:46:17;98325.00;;;25.10
19040;BMP180;9652;49.014;12.052;2023-09-07T09:48:45;98331.00;;;25.20
19040;BMP180;9652;49.014;12.052;2023-09-07T09:51:14;98324.00;;;25.20
19040;BMP180;9652;49.014;12.052;2023-09-07T09:53:42;98317.00;;;25.30
19040;BMP180;9652;49.014;12.052;2023-09-07T09:56:10;98327.00;;;25.40
19040;BMP180;9652;49.014;12.052;2023-09-07T09:58:39;98321.00;;;25.50
19040;BMP180;9652;49.014;12.052;2023-09-07T10:01:07;98321.00;;;25.50
19040;BMP180;9652;49.014;12.052;2023-09-07T10:03:41;98327.00;;;25.60
19040;BMP180;9652;49.014;12.052;2023-09-07T10:06:18;98332.00;;;25.70
19040;BMP180;9652;49.014;12.052;2023-09-07T10:08:54;98323.00;;;25.80
19040;BMP180;9652;49.014;12.052;2023-09-07T10:11:29;98324.00;;;25.80
19040;BMP180;9652;49.014;12.052;2023-09-07T10:13:59;98321.00;;;25.90
19040;BMP180;9652;49.014;12.052;2023-09-07T10:16:26;98314.00;;;26.00
19040;BMP180;9652;49.014;12.052;2023-09-07T10:18:53;98319.00;;;26.10
19040;BMP180;9652;49.014;12.052;2023-09-07T10:21:25;98321.00;;;26.10
19040;BMP180;9652;49.014;12.052;2023-09-07T10:23:52;98310.00;;;26.20
19040;BMP180;9652;49.014;12.052;2023-09-07T10:26:21;98308.00;;;26.20
19040;BMP180;9652;49.014;12.052;2023-09-07T10:29:00;98312.00;;;26.10
19040;BMP180;9652;49.014;12.052;2023-09-07T10:31:30;98302.00;;;26.30
19040;BMP180;9652;49.014;12.052;2023-09-07T10:34:08;98297.00;;;26.40
19040;BMP180;9652;49.014;12.052;2023-09-07T10:36:36;98304.00;;;26.40
19040;BMP180;9652;49.014;12.052;2023-09-07T10:39:04;98306.00;;;26.50
19040;BMP180;9652;49.014;12.052;2023-09-07T10:41:42;98299.00;;;26.50
19040;BMP180;9652;49.014;12.052;2023-09-07T10:44:11;98294.00;;;26.60
19040;BMP180;9652;49.014;12.052;2023-09-07T10:46:40;98297.00;;;26.70
19040;BMP180;9652;49.014;12.052;2023-09-07T10:49:08;98295.00;;;26.70
19040;BMP180;9652;49.014;12.052;2023-09-07T10:51:45;98289.00;;;26.80
19040;BMP180;9652;49.014;12.052;2023-09-07T10:54:16;98295.00;;;26.80
19040;BMP180;9652;49.014;12.052;2023-09-07T10:56:45;98307.00;;;26.90
19040;BMP180;9652;49.014;12.052;2023-09-07T10:59:15;98289.00;;;26.90
19040;BMP180;9652;49.014;12.052;2023-09-07T11:01:44;98285.00;;;27.00
19040;BMP180;9652;49.014;12.052;2023-09-07T11:04:11;98287.00;;;27.00
19040;BMP180;9652;49.014;12.052;2023-09-07T11:06:40;98288.00;;;27.10
19040;BMP180;9652;49.014;12.052;2023-09-07T11:09:09;98281.00;;;27.10
19040;BMP180;9652;49.014;12.052;2023-09-07T11:11:37;98285.00;;;27.20
19040;BMP180;9652;49.014;12.052;2023-09-07T11:14:04;98271.00;;;27.20
19040;BMP180;9652;49.014;12.052;2023-09-07T11:16:34;98279.00;;;27.30
19040;BMP180;9652;49.014;12.052;2023-09-07T11:19:05;98258.00;;;27.30
19040;BMP180;9652;49.014;12.052;2023-09-07T11:21:32;98264.00;;;27.40
19040;BMP180;9652;49.014;12.052;2023-09-07T11:24:04;98266.00;;;27.40
19040;BMP180;9652;49.014;12.052;2023-09-07T11:26:42;98260.00;;;27.50
19040;BMP180;9652;49.014;12.052;2023-09-07T11:29:09;98265.00;;;27.50
19040;BMP180;9652;49.014;12.052;2023-09-07T11:31:37;98259.00;;;27.60
19040;BMP180;9652;49.014;12.052;2023-09-07T11:34:09;98260.00;;;27.60
19040;BMP180;9652;49.014;12.052;2023-09-07T11:36:37;98247.00;;;27.70
19040;BMP180;9652;49.014;12.052;2023-09-07T11:39:04;98250.00;;;27.70
19040;BMP180;9652;49.014;12.052;2023-09-07T11:41:38;98245.00;;;27.70
19040;BMP180;9652;49.014;12.052;2023-09-07T11:44:06;98251.00;;;27.80
19040;BMP180;9652;49.014;12.052;2023-09-07T11:46:34;98252.00;;;27.80
19040;BMP180;9652;49.014;12.052;2023-09-07T11:49:03;98233.00;;;27.90
19040;BMP180;9652;49.014;12.052;2023-09-07T11:51:34;98244.00;;;27.90
19040;BMP180;9652;49.014;12.052;2023-09-07T11:54:02;98233.00;;;27.90
19040;BMP180;9652;49.014;12.052;2023-09-07T11:56:30;98237.00;;;27.90
19040;BMP180;9652;49.014;12.052;2023-09-07T11:58:57;98241.00;;;27.90
19040;BMP180;9652;49.014;12.052;2023-09-07T12:01:24;98250.00;;;28.00
19040;BMP180;9652;49.014;12.052;2023-09-07T12:03:53;98244.00;;;28.00
19040;BMP180;9652;49.014;12.052;2023-09-07T12:06:22;98237.00;;;28.00
19040;BMP180;9652;49.014;12.052;2023-09-07T12:08:59;98232.00;;;28.00
19040;BMP180;9652;49.014;12.052;2023-09-07T12:11:27;98242.00;;;28.10
19040;BMP180;9652;49.014;12.052;2023-09-07T12:13:54;98240.00;;;28.10
19040;BMP180;9652;49.014;12.052;2023-09-07T12:16:21;98239.00;;;28.20
19040;BMP180;9652;49.014;12.052;2023-09-07T12:18:48;98237.00;;;28.20
19040;BMP180;9652;49.014;12.052;2023-09-07T12:21:15;98233.00;;;28.20
19040;BMP180;9652;49.014;12.052;2023-09-07T12:23:43;98218.00;;;28.30
19040;BMP180;9652;49.014;12.052;2023-09-07T12:26:11;98238.00;;;28.30
19040;BMP180;9652;49.014;12.052;2023-09-07T12:28:38;98235.00;;;28.30
19040;BMP180;9652;49.014;12.052;2023-09-07T12:31:05;98234.00;;;28.40
19040;BMP180;9652;49.014;12.052;2023-09-07T12:33:32;98229.00;;;28.40
19040;BMP180;9652;49.014;12.052;2023-09-07T12:35:59;98217.00;;;28.50
19040;BMP180;9652;49.014;12.052;2023-09-07T12:38:26;98222.00;;;28.50
19040;BMP180;9652;49.014;12.052;2023-09-07T12:40:56;98205.00;;;28.50
19040;BMP180;9652;49.014;12.052;2023-09-07T12:43:24;98207.00;;;28.60
19040;BMP180;9652;49.014;12.052;2023-09-07T12:45:51;98219.00;;;28.50
19040;BMP180;9652;49.014;12.052;2023-09-07T12:48:19;98215.00;;;28.40
19040;BMP180;9652;49.014;12.052;2023-09-07T12:50:47;98213.00;;;28.70
19040;BMP180;9652;49.014;12.052;2023-09-07T12:53:14;98208.00;;;28.80
19040;BMP180;9652;49.014;12.052;2023-09-07T12:55:41;98209.00;;;28.80
19040;BMP180;9652;49.014;12.052;2023-09-07T12:58:10;98208.00;;;28.90
19040;BMP180;9652;49.014;12.052;2023-09-07T13:00:37;98197.00;;;28.90
19040;BMP180;9652;49.014;12.052;2023-09-07T13:03:05;98199.00;;;29.00
19040;BMP180;9652;49.014;12.052;2023-09-07T13:05:32;98212.00;;;29.00
19040;BMP180;9652;49.014;12.052;2023-09-07T13:08:00;98207.00;;;29.10
19040;BMP180;9652;49.014;12.052;2023-09-07T13:10:28;98199.00;;;29.10
19040;BMP180;9652;49.014;12.052;2023-09-07T13:12:55;98194.00;;;29.20
19040;BMP180;9652;49.014;12.052;2023-09-07T13:15:23;98200.00;;;29.20
19040;BMP180;9652;49.014;12.052;2023-09-07T13:17:50;98194.00;;;29.30
19040;BMP180;9652;49.014;12.052;2023-09-07T13:20:18;98192.00;;;29.30
19040;BMP180;9652;49.014;12.052;2023-09-07T13:22:45;98199.00;;;29.40
19040;BMP180;9652;49.014;12.052;2023-09-07T13:25:13;98191.00;;;29.40
19040;BMP180;9652;49.014;12.052;2023-09-07T13:27:40;98186.00;;;29.40
19040;BMP180;9652;49.014;12.052;2023-09-07T13:30:08;98180.00;;;29.60
19040;BMP180;9652;49.014;12.052;2023-09-07T13:32:36;98179.00;;;29.60
19040;BMP180;9652;49.014;12.052;2023-09-07T13:35:04;98178.00;;;29.70
19040;BMP180;9652;49.014;12.052;2023-09-07T13:37:31;98184.00;;;29.70
19040;BMP180;9652;49.014;12.052;2023-09-07T13:40:00;98186.00;;;29.80
19040;BMP180;9652;49.014;12.052;2023-09-07T13:42:29;98183.00;;;29.90
19040;BMP180;9652;49.014;12.052;2023-09-07T13:44:56;98176.00;;;30.00
19040;BMP180;9652;49.014;12.052;2023-09-07T13:47:23;98171.00;;;30.10
19040;BMP180;9652;49.014;12.052;2023-09-07T13:49:51;98170.00;;;30.20
19040;BMP180;9652;49.014;12.052;2023-09-07T13:52:18;98160.00;;;30.40
19040;BMP180;9652;49.014;12.052;2023-09-07T13:54:45;98161.00;;;30.70
19040;BMP180;9652;49.014;12.052;2023-09-07T13:57:12;98161.00;;;30.90
19040;BMP180;9652;49.014;12.052;2023-09-07T13:59:40;98172.00;;;31.10
19040;BMP180;9652;49.014;12.052;2023-09-07T14:02:07;98171.00;;;31.20
19040;BMP180;9652;49.014;12.052;2023-09-07T14:04:34;98168.00;;;31.30
19040;BMP180;9652;49.014;12.052;2023-09-07T14:07:02;98177.00;;;31.50
19040;BMP180;9652;49.014;12.052;2023-09-07T14:09:30;98116.00;;;31.60
19040;BMP180;9652;49.014;12.052;2023-09-07T14:11:57;98172.00;;;31.70
19040;BMP180;9652;49.014;12.052;2023-09-07T14:14:24;98178.00;;;31.90